Terminal Aerodrome Forecast
Issued by NWS

Home | Current Version | Previous Version | Text Only | Print | Product List | Glossary Off
Versions: 1 2 3 4 5 6 7 8 9 10 11 12 13 14 15 16 17 18 19 20 21

000
FTUS43 KABR 191123
TAFATY
TAF
KATY 191123Z 1912/2012 36015G25KT P6SM OVC005
     FM191700 02016G24KT P6SM OVC015
     FM191900 03016G23KT P6SM SCT150
     FM200200 03011KT P6SM BKN250
     FM200400 03007KT P6SM SCT250=

USA.gov is the U.S. government's official web portal to all federal, state and local government web resources and services.